Time;durP1;ratioP1;P1;durP2;ratioP2;P2;SDS_P1;SDS_P2;PMS_P1;PMS_P2;Temp;Humidity;BMP_temperature;BMP_pressure;BME280_temperature;BME280_humidity;BME280_pressure;Samples;Min_cycle;Max_cycle;Signal;HPM_P1;HPM_P2
2021/09/28 00:01:17;;;;;;;14.80;12.58;;;;;;;16.17;86.49;97753.16;1750828;81;21031;-84
2021/09/28 00:03:44;;;;;;;13.10;11.80;;;;;;;16.17;86.98;97749.16;1745181;81;20942;-85
2021/09/28 00:06:11;;;;;;;14.47;12.00;;;;;;;16.17;90.42;97754.97;1750587;82;21061;-85
2021/09/28 00:08:37;;;;;;;13.72;11.70;;;;;;;16.17;88.27;97748.28;1738942;82;20970;-84
2021/09/28 00:11:04;;;;;;;14.10;12.65;;;;;;;16.17;89.54;97750.48;1750757;82;21469;-84
2021/09/28 00:13:30;;;;;;;15.00;12.55;;;;;;;16.21;90.81;97743.16;1731333;82;20980;-84
2021/09/28 00:15:57;;;;;;;14.23;12.58;;;;;;;16.19;90.56;97744.57;1736727;83;21011;-84
2021/09/28 00:18:24;;;;;;;13.25;11.85;;;;;;;16.22;89.08;97744.41;1750626;82;21017;-84
2021/09/28 00:20:51;;;;;;;15.28;12.45;;;;;;;16.25;89.28;97746.51;1742751;82;20953;-83
2021/09/28 00:23:18;;;;;;;14.60;12.00;;;;;;;16.28;89.26;97748.52;1746168;82;21017;-83
2021/09/28 00:25:45;;;;;;;15.93;12.37;;;;;;;16.30;89.96;97747.10;1748086;82;20995;-83
2021/09/28 00:28:11;;;;;;;16.60;11.88;;;;;;;16.28;88.16;97742.33;1750721;82;20996;-83
2021/09/28 00:30:38;;;;;;;16.70;11.60;;;;;;;16.26;89.08;97740.20;1750734;82;20960;-83
2021/09/28 00:33:05;;;;;;;15.65;12.00;;;;;;;16.29;88.36;97739.58;1748959;82;20952;-83
2021/09/28 00:35:31;;;;;;;13.58;12.07;;;;;;;16.29;88.17;97741.38;1749339;82;21043;-83
2021/09/28 00:37:58;;;;;;;15.00;11.83;;;;;;;16.25;89.18;97735.34;1781784;80;21000;-83
2021/09/28 00:40:25;;;;;;;13.25;11.12;;;;;;;16.28;90.34;97743.67;1781951;80;21043;-83
2021/09/28 00:42:51;;;;;;;13.35;11.60;;;;;;;16.29;89.55;97741.38;1772877;80;20972;-83
2021/09/28 00:45:18;;;;;;;14.85;12.45;;;;;;;16.32;89.54;97741.21;1737111;81;20986;-83
2021/09/28 00:47:44;;;;;;;13.98;11.30;;;;;;;16.33;89.05;97737.09;1750595;80;21390;-83
2021/09/28 00:50:11;;;;;;;14.20;11.68;;;;;;;16.32;90.33;97738.05;1752065;80;20989;-84
2021/09/28 00:52:37;;;;;;;15.00;12.07;;;;;;;16.31;88.97;97736.78;1719058;81;21003;-84
2021/09/28 00:55:05;;;;;;;13.72;11.50;;;;;;;16.30;88.64;97733.73;1752511;82;21387;-84
2021/09/28 00:57:32;;;;;;;13.58;11.88;;;;;;;16.30;88.86;97733.73;1761734;81;21000;-84
2021/09/28 01:00:00;;;;;;;13.90;12.03;;;;;;;16.28;88.29;97736.98;1750846;82;21016;-84
2021/09/28 01:02:27;;;;;;;14.45;12.95;;;;;;;16.22;88.40;97737.72;1755245;81;21458;-84
2021/09/28 01:04:53;;;;;;;19.07;13.80;;;;;;;16.18;88.41;97733.95;1766144;80;20968;-84
2021/09/28 01:07:20;;;;;;;18.40;13.60;;;;;;;16.15;88.22;97733.66;1757324;82;21039;-84
2021/09/28 01:09:46;;;;;;;16.05;13.25;;;;;;;16.12;89.61;97732.98;1757157;82;21004;-84
2021/09/28 01:12:13;;;;;;;17.98;14.60;;;;;;;16.09;89.28;97735.34;1757206;81;21043;-84
2021/09/28 01:14:42;;;;;;;19.27;15.20;;;;;;;16.09;89.01;97732.67;1760607;80;20946;-84
2021/09/28 01:17:17;;;;;;;18.62;15.43;;;;;;;16.06;88.53;97738.18;1752946;82;21440;-84
2021/09/28 01:19:45;;;;;;;18.30;15.25;;;;;;;16.01;88.34;97742.47;1746905;82;21395;-84
2021/09/28 01:22:14;;;;;;;22.48;15.10;;;;;;;15.96;89.12;97739.19;1753140;82;21426;-84
2021/09/28 01:24:45;;;;;;;18.77;15.55;;;;;;;15.95;89.94;97734.80;1760587;80;20994;-84
2021/09/28 01:27:12;;;;;;;18.45;16.27;;;;;;;15.95;89.59;97734.80;1746827;82;20970;-84
2021/09/28 01:29:39;;;;;;;20.08;16.15;;;;;;;15.93;89.06;97737.55;1753167;82;20977;-84
2021/09/28 01:32:06;;;;;;;19.77;14.87;;;;;;;15.90;88.71;97736.34;1752972;82;20979;-84
2021/09/28 01:34:33;;;;;;;22.00;16.93;;;;;;;15.86;88.65;97736.61;1775087;81;20923;-84
2021/09/28 01:36:59;;;;;;;19.60;17.02;;;;;;;15.79;89.34;97731.61;1755904;81;21384;-83
2021/09/28 01:39:26;;;;;;;19.40;16.05;;;;;;;15.78;89.45;97728.53;1753263;81;20993;-84
2021/09/28 01:41:53;;;;;;;20.35;16.35;;;;;;;15.74;91.93;97728.30;1752696;82;21039;-83
2021/09/28 01:44:22;;;;;;;17.82;15.70;;;;;;;15.71;90.65;97732.50;1761464;80;20995;-84
2021/09/28 01:46:51;;;;;;;16.82;14.47;;;;;;;15.69;89.90;97733.91;1767033;81;20964;-84
2021/09/28 01:49:20;;;;;;;18.82;16.27;;;;;;;15.68;90.95;97729.98;1738956;81;21030;-83
2021/09/28 01:51:47;;;;;;;20.20;16.48;;;;;;;15.64;91.91;97727.09;1753111;82;21006;-84
2021/09/28 01:54:14;;;;;;;19.87;15.93;;;;;;;15.61;90.48;97726.78;1776280;79;20988;-83
2021/09/28 01:56:40;;;;;;;18.90;15.95;;;;;;;15.61;90.87;97726.78;1761015;81;21611;-83
2021/09/28 01:59:08;;;;;;;18.35;15.53;;;;;;;15.60;90.56;97726.41;1753108;81;21040;-83
2021/09/28 02:01:36;;;;;;;16.35;14.75;;;;;;;15.61;90.37;97733.95;1753098;82;20960;-84
2021/09/28 02:04:03;;;;;;;21.33;14.75;;;;;;;15.62;90.57;97731.66;1757178;81;20994;-83
2021/09/28 02:06:35;;;;;;;16.93;13.75;;;;;;;15.62;90.65;97723.19;1753737;81;20939;-84
2021/09/28 02:08:59;;;;;;;14.45;12.95;;;;;;;15.65;91.02;97723.49;1752731;82;20978;-83
2021/09/28 02:11:25;;;;;;;14.58;13.08;;;;;;;15.68;91.79;97725.98;1753128;82;21067;-84
2021/09/28 02:13:53;;;;;;;15.75;12.55;;;;;;;15.71;90.82;97719.98;1764842;81;21061;-83
2021/09/28 02:16:20;;;;;;;15.60;12.37;;;;;;;15.72;90.50;97724.87;1777334;81;21034;-84
2021/09/28 02:18:48;;;;;;;13.83;11.88;;;;;;;15.73;90.89;97719.06;1758219;81;21399;-84
2021/09/28 02:21:15;;;;;;;15.65;12.60;;;;;;;15.76;90.65;97726.43;1753139;80;20950;-83
2021/09/28 02:23:41;;;;;;;14.23;12.25;;;;;;;15.76;90.63;97730.89;1768819;80;21479;-83
2021/09/28 02:26:08;;;;;;;14.95;12.33;;;;;;;15.77;91.47;97725.94;1777365;81;21013;-83
2021/09/28 02:28:34;;;;;;;13.83;11.73;;;;;;;15.82;92.75;97725.23;1777326;81;21046;-83
2021/09/28 02:31:01;;;;;;;14.10;11.80;;;;;;;15.85;91.45;97722.37;1758549;81;21479;-83
2021/09/28 02:33:28;;;;;;;15.25;12.20;;;;;;;15.86;91.08;97720.08;1765530;80;21096;-83
2021/09/28 02:35:55;;;;;;;12.37;11.08;;;;;;;15.83;91.15;97722.95;1777348;81;21379;-83
2021/09/28 02:38:22;;;;;;;15.10;12.28;;;;;;;15.87;91.72;97717.83;1777398;81;21154;-84
2021/09/28 02:40:48;;;;;;;12.20;11.00;;;;;;;15.92;92.27;97726.91;1777415;81;20983;-83
2021/09/28 02:43:15;;;;;;;13.98;12.00;;;;;;;15.96;92.59;97731.17;1768218;81;20983;-83
2021/09/28 02:45:47;;;;;;;14.85;12.40;;;;;;;15.98;91.79;97725.25;1778287;80;20947;-84
2021/09/28 02:48:10;;;;;;;14.45;12.65;;;;;;;15.99;91.59;97725.66;1777804;81;21602;-83
2021/09/28 02:50:37;;;;;;;14.35;11.83;;;;;;;15.99;91.51;97717.65;1778484;80;21017;-83
2021/09/28 02:53:03;;;;;;;15.40;12.47;;;;;;;16.02;91.65;97716.61;1771881;81;21014;-83
2021/09/28 02:55:30;;;;;;;14.83;12.88;;;;;;;16.01;91.33;97717.53;1754794;80;21012;-84
2021/09/28 02:57:56;;;;;;;16.20;11.88;;;;;;;15.99;91.24;97711.42;1752986;81;21046;-84
2021/09/28 03:00:23;;;;;;;13.62;11.75;;;;;;;15.97;91.23;97716.86;1746705;82;21003;-84
2021/09/28 03:02:50;;;;;;;13.70;12.30;;;;;;;15.95;91.01;97722.28;1757016;80;21480;-84
2021/09/28 03:05:16;;;;;;;17.00;12.95;;;;;;;15.92;91.77;97719.77;1746723;82;21006;-84
2021/09/28 03:07:43;;;;;;;15.03;12.55;;;;;;;15.93;91.84;97721.95;1753057;82;21001;-84
2021/09/28 03:10:10;;;;;;;15.90;13.08;;;;;;;15.92;91.89;97717.09;1746593;82;21014;-84
2021/09/28 03:12:37;;;;;;;17.60;13.45;;;;;;;15.91;91.55;97720.69;1756186;80;20999;-84
2021/09/28 03:15:05;;;;;;;18.75;13.50;;;;;;;15.88;91.26;97719.55;1746770;81;20978;-84
2021/09/28 03:17:31;;;;;;;20.62;14.68;;;;;;;15.83;91.11;97720.27;1752829;81;21024;-84
2021/09/28 03:19:58;;;;;;;20.23;15.70;;;;;;;15.81;91.69;97720.81;1753034;82;21484;-84
2021/09/28 03:22:24;;;;;;;16.12;14.47;;;;;;;15.81;91.66;97719.48;1754848;81;20955;-84
2021/09/28 03:24:51;;;;;;;15.93;13.85;;;;;;;15.78;91.19;97720.52;1756786;81;20980;-84
2021/09/28 03:27:17;;;;;;;17.32;14.83;;;;;;;15.75;92.51;97719.83;1758464;81;21033;-84
2021/09/28 03:29:44;;;;;;;18.52;15.05;;;;;;;15.72;91.63;97730.21;1752979;81;21021;-84
2021/09/28 03:32:11;;;;;;;16.82;15.08;;;;;;;15.68;92.57;97725.52;1761848;81;21507;-84
2021/09/28 03:34:37;;;;;;;19.37;15.95;;;;;;;15.65;92.46;97727.01;1772533;81;21080;-84
2021/09/28 03:37:04;;;;;;;19.85;16.40;;;;;;;15.61;92.36;97729.45;1752929;82;21009;-84
2021/09/28 03:39:32;;;;;;;18.48;16.45;;;;;;;15.57;92.40;97733.23;1753131;81;21002;-84
2021/09/28 03:41:59;;;;;;;21.17;16.93;;;;;;;15.52;92.32;97734.83;1758615;81;20991;-84
2021/09/28 03:44:26;;;;;;;20.55;16.85;;;;;;;15.50;92.66;97735.86;1777348;81;21127;-84
2021/09/28 03:46:52;;;;;;;18.75;16.75;;;;;;;15.46;92.18;97739.17;1770652;81;20951;-84
2021/09/28 03:49:22;;;;;;;23.47;17.55;;;;;;;15.42;91.86;97739.82;1753116;82;20973;-84
2021/09/28 03:51:49;;;;;;;19.77;17.67;;;;;;;15.39;91.96;97744.44;1727707;80;21003;-84
2021/09/28 03:54:15;;;;;;;21.93;17.92;;;;;;;15.37;92.16;97741.00;1776168;81;21029;-84
2021/09/28 03:56:42;;;;;;;21.62;18.27;;;;;;;15.35;92.15;97746.88;1751333;82;21477;-84
2021/09/28 03:59:08;;;;;;;19.55;17.55;;;;;;;15.33;92.44;97751.45;1766974;81;21507;-84
2021/09/28 04:01:35;;;;;;;21.80;18.20;;;;;;;15.31;92.34;97744.84;1766006;81;20987;-84
2021/09/28 04:04:01;;;;;;;22.30;18.82;;;;;;;15.29;91.68;97750.75;1753058;82;21044;-84
2021/09/28 04:06:28;;;;;;;25.80;19.02;;;;;;;15.24;92.13;97750.14;1746607;82;21018;-84
2021/09/28 04:08:55;;;;;;;25.72;18.27;;;;;;;15.21;91.85;97752.95;1773441;80;20991;-84
2021/09/28 04:11:22;;;;;;;22.22;17.67;;;;;;;15.21;92.04;97755.63;1757008;82;21021;-84
2021/09/28 04:13:49;;;;;;;23.67;17.15;;;;;;;15.21;92.04;97747.16;1740636;81;20979;-84
2021/09/28 04:16:16;;;;;;;25.27;17.82;;;;;;;15.24;92.45;97756.81;1728116;82;20973;-84
2021/09/28 04:18:45;;;;;;;16.37;14.58;;;;;;;15.25;93.08;97762.08;1755614;81;20976;-84
2021/09/28 04:21:14;;;;;;;18.12;15.32;;;;;;;15.30;92.64;97757.81;1752324;81;20928;-84
2021/09/28 04:23:41;;;;;;;17.87;13.62;;;;;;;15.34;92.69;97755.84;1753326;82;21012;-84
2021/09/28 04:26:08;;;;;;;18.52;15.28;;;;;;;15.36;92.51;97753.97;1753259;82;21385;-85
2021/09/28 04:28:35;;;;;;;20.00;14.47;;;;;;;15.37;92.21;97753.02;1753088;82;21008;-85
2021/09/28 04:31:02;;;;;;;18.27;15.35;;;;;;;15.37;93.72;97755.69;1742395;81;20975;-85
2021/09/28 04:33:29;;;;;;;16.17;13.98;;;;;;;15.42;93.04;97754.51;1753046;82;20979;-84
2021/09/28 04:35:55;;;;;;;16.48;13.60;;;;;;;15.46;92.88;97753.86;1753237;82;21038;-84
2021/09/28 04:38:22;;;;;;;14.65;13.10;;;;;;;15.49;92.76;97756.35;1753179;82;21374;-84
2021/09/28 04:40:48;;;;;;;16.67;14.18;;;;;;;15.49;92.68;97758.17;1752707;81;20998;-84
2021/09/28 04:43:15;;;;;;;16.27;13.72;;;;;;;15.49;93.03;97752.84;1729502;82;20939;-84
2021/09/28 04:45:42;;;;;;;18.55;13.68;;;;;;;15.55;93.63;97755.17;1707513;84;21018;-84
2021/09/28 04:48:08;;;;;;;16.55;13.58;;;;;;;15.62;93.19;97752.58;1723190;83;20989;-84
2021/09/28 04:50:35;;;;;;;15.65;13.38;;;;;;;15.64;92.79;97750.67;1731168;81;20954;-84
2021/09/28 04:53:04;;;;;;;14.28;12.37;;;;;;;15.68;93.47;97748.22;1776260;81;21472;-85
2021/09/28 04:55:30;;;;;;;13.32;11.55;;;;;;;15.75;94.15;97757.23;1750297;81;21022;-84
2021/09/28 04:57:57;;;;;;;15.60;12.63;;;;;;;15.81;93.36;97757.77;1744955;82;21058;-85
2021/09/28 05:00:23;;;;;;;14.58;13.08;;;;;;;15.83;94.02;97757.69;1748767;80;21097;-85
2021/09/28 05:02:50;;;;;;;16.82;13.08;;;;;;;15.80;94.20;97753.37;1775046;81;20983;-85
2021/09/28 05:05:16;;;;;;;15.90;13.70;;;;;;;15.79;93.91;97748.11;1775540;81;21018;-85
2021/09/28 05:07:43;;;;;;;15.13;13.62;;;;;;;15.82;93.21;97750.63;1748152;81;21431;-84
2021/09/28 05:10:09;;;;;;;18.25;15.95;;;;;;;15.80;92.86;97752.03;1750620;80;20938;-85
2021/09/28 05:12:36;;;;;;;17.85;14.85;;;;;;;15.81;93.24;97750.20;1737925;83;21023;-85
2021/09/28 05:15:04;;;;;;;23.27;15.90;;;;;;;15.80;92.82;97751.16;1766338;80;21003;-85
2021/09/28 05:17:31;;;;;;;19.12;15.45;;;;;;;15.79;92.56;97752.11;1759456;82;21017;-85
2021/09/28 05:19:57;;;;;;;19.52;15.38;;;;;;;15.78;93.71;97747.23;1753849;82;21023;-85
2021/09/28 05:22:24;;;;;;;18.90;16.75;;;;;;;15.76;93.15;97752.27;1723184;82;20968;-85
2021/09/28 05:24:50;;;;;;;18.15;16.25;;;;;;;15.75;93.33;97752.77;1737662;83;20995;-85
2021/09/28 05:27:17;;;;;;;16.55;14.78;;;;;;;15.75;93.12;97757.23;1752290;82;21048;-84
2021/09/28 05:29:43;;;;;;;22.75;16.02;;;;;;;15.71;94.52;97753.88;1738287;83;20990;-85
2021/09/28 05:32:10;;;;;;;20.82;15.58;;;;;;;15.67;93.18;97753.19;1777334;80;20938;-85
2021/09/28 05:34:36;;;;;;;19.70;16.02;;;;;;;15.62;93.05;97754.37;1738434;81;21527;-84
2021/09/28 05:37:04;;;;;;;20.08;16.50;;;;;;;15.60;92.59;97752.27;1750816;82;21045;-84
2021/09/28 05:39:31;;;;;;;21.85;17.48;;;;;;;15.57;92.49;97757.27;1750650;82;20991;-84
2021/09/28 05:41:57;;;;;;;19.75;17.23;;;;;;;15.55;92.38;97761.39;1759163;81;20963;-84
2021/09/28 05:44:24;;;;;;;20.60;16.35;;;;;;;15.55;92.74;97754.71;1764395;81;20975;-85
2021/09/28 05:46:51;;;;;;;18.02;16.12;;;;;;;15.58;92.63;97757.69;1750637;80;21378;-83
2021/09/28 05:49:17;;;;;;;17.82;15.93;;;;;;;15.57;93.48;97754.59;1750526;82;21353;-84
2021/09/28 05:51:53;;;;;;;17.98;16.05;;;;;;;15.58;92.87;97769.70;1755281;81;20983;-84
2021/09/28 05:54:21;;;;;;;18.70;16.65;;;;;;;15.58;93.40;97762.53;1766811;81;21047;-85
2021/09/28 05:56:50;;;;;;;19.02;16.07;;;;;;;15.59;93.15;97768.75;1761653;81;21007;-83
2021/09/28 05:59:18;;;;;;;19.30;16.35;;;;;;;15.61;93.15;97770.02;1753093;82;20957;-83
2021/09/28 06:01:46;;;;;;;19.42;15.78;;;;;;;15.63;93.26;97774.33;1772146;79;20960;-85
2021/09/28 06:04:13;;;;;;;18.17;15.88;;;;;;;15.65;92.77;97770.24;1777408;81;20939;-83
2021/09/28 06:06:40;;;;;;;17.42;15.32;;;;;;;15.69;92.48;97771.78;1775971;81;21368;-83
2021/09/28 06:09:07;;;;;;;16.27;13.90;;;;;;;15.75;93.01;97774.14;1725380;82;21019;-83
2021/09/28 06:11:34;;;;;;;17.92;14.15;;;;;;;15.83;93.17;97773.22;1741284;81;21014;-83
2021/09/28 06:14:00;;;;;;;17.92;13.53;;;;;;;15.87;93.68;97775.73;1767051;81;21081;-82
2021/09/28 06:16:27;;;;;;;16.90;14.07;;;;;;;15.91;93.61;97775.97;1756006;81;21366;-83
2021/09/28 06:18:53;;;;;;;18.57;13.25;;;;;;;16.01;93.27;97780.34;1761446;81;21067;-83
2021/09/28 06:21:20;;;;;;;16.50;14.05;;;;;;;16.13;93.15;97777.47;1754375;81;21383;-83
2021/09/28 06:23:46;;;;;;;21.70;17.37;;;;;;;16.21;93.31;97784.59;1753117;81;21092;-82
2021/09/28 06:26:13;;;;;;;17.82;14.28;;;;;;;16.30;92.70;97785.41;1746809;81;20997;-82
2021/09/28 06:28:39;;;;;;;20.37;17.02;;;;;;;16.33;92.34;97793.73;1753024;82;20977;-82
2021/09/28 06:31:05;;;;;;;15.75;13.90;;;;;;;16.37;92.45;97788.61;1763389;80;20947;-83
2021/09/28 06:33:32;;;;;;;17.85;14.23;;;;;;;16.43;92.35;97788.72;1777497;81;21002;-83
2021/09/28 06:35:59;;;;;;;17.45;15.40;;;;;;;16.46;92.17;97791.23;1764822;81;20985;-84
2021/09/28 06:38:25;;;;;;;16.90;15.10;;;;;;;16.52;92.37;97794.88;1753027;82;21960;-84
2021/09/28 06:40:52;;;;;;;16.55;14.65;;;;;;;16.62;92.70;97793.40;1759706;80;20976;-84
2021/09/28 06:43:19;;;;;;;19.77;15.55;;;;;;;16.76;92.43;97789.94;1777366;81;21049;-84
2021/09/28 06:45:46;;;;;;;19.40;16.45;;;;;;;16.84;92.08;97791.29;1770078;81;21009;-84
2021/09/28 06:48:12;;;;;;;22.17;17.85;;;;;;;16.92;92.14;97794.39;1753006;80;21000;-85
2021/09/28 06:50:38;;;;;;;23.32;19.82;;;;;;;17.01;92.24;97799.67;1756712;80;21060;-85
2021/09/28 06:53:05;;;;;;;26.35;20.30;;;;;;;16.99;91.95;97798.41;1777297;81;21380;-85
2021/09/28 06:55:32;;;;;;;26.75;22.20;;;;;;;16.96;91.50;97797.28;1775056;81;21452;-85
2021/09/28 06:57:58;;;;;;;32.88;24.80;;;;;;;17.00;91.54;97800.16;1760386;81;21006;-83
2021/09/28 07:00:24;;;;;;;30.20;25.02;;;;;;;17.03;91.24;97803.13;1745207;81;20994;-84
2021/09/28 07:02:51;;;;;;;33.35;26.20;;;;;;;17.03;90.62;97800.45;1775163;81;21016;-84
2021/09/28 07:05:20;;;;;;;39.35;30.82;;;;;;;17.03;90.59;97808.48;1775191;81;21417;-84
2021/09/28 07:07:46;;;;;;;38.10;29.63;;;;;;;17.06;90.67;97800.78;1775406;81;21030;-83
2021/09/28 07:10:14;;;;;;;38.98;28.90;;;;;;;17.09;90.36;97812.63;1757273;80;20994;-84
2021/09/28 07:12:41;;;;;;;35.17;27.15;;;;;;;17.10;90.17;97813.01;1773470;81;21325;-83
2021/09/28 07:15:09;;;;;;;33.15;26.85;;;;;;;17.13;90.24;97811.50;1775447;81;21003;-84
2021/09/28 07:17:35;;;;;;;33.67;26.93;;;;;;;17.19;90.23;97812.47;1770731;81;21034;-83
2021/09/28 07:20:05;;;;;;;33.05;26.97;;;;;;;17.27;90.49;97809.33;1744741;82;21040;-84
2021/09/28 07:22:31;;;;;;;33.88;26.57;;;;;;;17.34;89.94;97812.03;1770828;81;21021;-83
2021/09/28 07:24:58;;;;;;;38.28;30.27;;;;;;;17.35;89.45;97821.78;1775359;81;20979;-84
2021/09/28 07:27:25;;;;;;;40.33;31.73;;;;;;;17.37;89.26;97824.38;1752356;81;20955;-84
2021/09/28 07:29:51;;;;;;;32.38;24.92;;;;;;;17.37;88.95;97825.72;1750356;82;21076;-84
2021/09/28 07:32:20;;;;;;;36.28;26.48;;;;;;;17.38;88.61;97824.76;1773650;80;21346;-84
2021/09/28 07:34:47;;;;;;;34.88;27.25;;;;;;;17.38;88.95;97826.97;1766683;81;21499;-84
2021/09/28 07:37:15;;;;;;;30.02;26.62;;;;;;;17.43;89.06;97828.52;1746525;81;21015;-84
2021/09/28 07:39:42;;;;;;;31.97;25.77;;;;;;;17.44;89.32;97831.08;1750243;82;21431;-84
2021/09/28 07:42:09;;;;;;;33.05;26.93;;;;;;;17.46;88.67;97830.98;1771361;80;20968;-85
2021/09/28 07:44:35;;;;;;;31.12;24.05;;;;;;;17.48;88.40;97830.44;1766692;81;21011;-84
2021/09/28 07:47:02;;;;;;;31.55;24.50;;;;;;;17.46;88.28;97832.33;1766910;81;20987;-84
2021/09/28 07:49:28;;;;;;;30.72;23.25;;;;;;;17.47;88.26;97834.92;1737584;81;21310;-85
2021/09/28 07:51:55;;;;;;;28.92;24.07;;;;;;;17.51;88.00;97832.91;1692163;85;21465;-84
2021/09/28 07:54:21;;;;;;;28.35;22.27;;;;;;;17.55;88.15;97838.47;1762330;81;21483;-85
2021/09/28 07:56:47;;;;;;;28.65;21.80;;;;;;;17.60;87.98;97838.20;1777288;81;20991;-85
2021/09/28 07:59:15;;;;;;;25.17;19.50;;;;;;;17.62;88.02;97836.28;1778356;80;21022;-85
2021/09/28 08:01:42;;;;;;;25.82;19.85;;;;;;;17.58;87.65;97834.74;1694786;85;21035;-85
2021/09/28 08:04:08;;;;;;;24.65;20.65;;;;;;;17.60;87.79;97839.55;1742091;81;21434;-85
2021/09/28 08:06:35;;;;;;;24.65;19.25;;;;;;;17.70;88.41;97835.81;1753384;80;20956;-85
2021/09/28 08:09:01;;;;;;;25.88;20.72;;;;;;;17.77;88.12;97831.81;1746883;82;20994;-85
2021/09/28 08:11:27;;;;;;;23.75;19.02;;;;;;;17.80;87.88;97836.50;1755170;80;21020;-85
2021/09/28 08:13:54;;;;;;;29.15;20.02;;;;;;;17.87;87.87;97841.00;1745348;81;20983;-85
2021/09/28 08:16:21;;;;;;;30.30;22.85;;;;;;;17.87;87.24;97841.00;1753217;82;21017;-85
2021/09/28 08:18:47;;;;;;;27.80;20.00;;;;;;;17.97;87.48;97835.91;1746788;82;21022;-85
2021/09/28 08:21:14;;;;;;;25.23;19.17;;;;;;;18.11;87.06;97844.48;1753643;80;21009;-85
2021/09/28 08:23:40;;;;;;;26.17;20.17;;;;;;;18.23;86.97;97837.45;1771284;80;21512;-85
2021/09/28 08:31:20;;;;;;;27.17;22.13;;;;;;;18.67;85.78;97835.56;1757400;80;20954;-85
2021/09/28 08:33:47;;;;;;;29.42;21.62;;;;;;;18.71;85.25;97828.16;1772234;80;21041;-85
2021/09/28 08:36:15;;;;;;;34.08;22.58;;;;;;;18.79;85.91;97839.73;1777488;81;21447;-85
2021/09/28 08:38:41;;;;;;;25.05;20.02;;;;;;;18.89;85.52;97837.31;1778543;81;21085;-85
2021/09/28 08:41:11;;;;;;;25.50;18.98;;;;;;;18.86;80.78;97831.17;1778587;81;21002;-85
2021/09/28 08:43:36;;;;;;;21.33;17.02;;;;;;;18.85;83.26;97830.80;1769107;81;21026;-85
2021/09/28 08:46:03;;;;;;;23.83;19.95;;;;;;;18.84;80.28;97836.26;1778547;81;21427;-81
2021/09/28 08:48:31;;;;;;;22.58;20.15;;;;;;;18.83;81.91;97831.39;1778481;80;21042;-80
2021/09/28 08:50:57;;;;;;;25.27;21.20;;;;;;;18.84;80.59;97836.26;1778566;80;21061;-80
2021/09/28 08:53:24;;;;;;;27.42;21.68;;;;;;;18.85;81.72;97829.45;1738865;82;21021;-80
2021/09/28 08:55:51;;;;;;;29.02;23.10;;;;;;;18.84;80.79;97831.77;1776003;80;21003;-81
2021/09/28 08:58:24;;;;;;;31.15;22.30;;;;;;;18.85;80.40;97836.16;1757019;81;21004;-81
2021/09/28 09:00:52;;;;;;;23.67;20.40;;;;;;;18.77;79.92;97834.45;1750911;82;20976;-81
2021/09/28 09:03:35;;;;;;;27.27;22.32;;;;;;;18.67;78.94;97838.24;1761061;81;20971;-80
2021/09/28 09:06:07;;;;;;;31.15;22.13;;;;;;;18.62;79.86;97838.15;1775300;81;20990;-81
2021/09/28 09:08:37;;;;;;;29.70;21.77;;;;;;;18.56;80.16;97833.56;1775656;81;21006;-80
2021/09/28 09:11:11;;;;;;;24.63;20.05;;;;;;;18.60;80.86;97832.88;1775816;81;20979;-81
2021/09/28 09:13:50;;;;;;;23.40;19.50;;;;;;;18.67;80.70;97830.66;1773685;80;20990;-81
2021/09/28 09:16:19;;;;;;;22.37;16.65;;;;;;;18.68;80.75;97839.95;1741094;81;20975;-81
2021/09/28 09:18:50;;;;;;;21.40;18.07;;;;;;;18.66;79.89;97832.50;1750271;82;21036;-81
2021/09/28 09:21:16;;;;;;;22.60;18.37;;;;;;;18.66;80.19;97836.52;1750386;82;21058;-81
2021/09/28 09:23:46;;;;;;;21.33;17.65;;;;;;;18.62;79.80;97836.34;1752517;81;20967;-81
2021/09/28 09:26:18;;;;;;;23.00;19.37;;;;;;;18.64;80.20;97834.41;1738378;81;20986;-82
2021/09/28 09:28:54;;;;;;;22.22;17.80;;;;;;;18.66;80.70;97832.97;1750996;82;21002;-81
2021/09/28 09:31:34;;;;;;;20.27;18.10;;;;;;;18.73;80.79;97832.46;1751084;82;20998;-81
2021/09/28 09:34:14;;;;;;;24.92;18.20;;;;;;;18.77;80.84;97834.95;1756129;81;21431;-81
2021/09/28 09:36:41;;;;;;;19.80;16.75;;;;;;;18.72;80.82;97839.27;1765161;81;21000;-82
2021/09/28 09:39:10;;;;;;;21.75;17.10;;;;;;;18.66;80.66;97837.87;1765187;81;21023;-81
2021/09/28 09:41:39;;;;;;;20.15;17.30;;;;;;;18.67;81.35;97836.90;1765122;81;21024;-81
2021/09/28 09:44:16;;;;;;;20.10;14.78;;;;;;;18.74;81.30;97842.23;1751659;81;21173;-82
2021/09/28 09:46:46;;;;;;;17.12;14.60;;;;;;;18.78;80.53;97844.72;1758223;80;20979;-81
2021/09/28 09:49:16;;;;;;;16.57;14.35;;;;;;;18.80;81.09;97840.10;1756998;81;21013;-81
2021/09/28 09:51:49;;;;;;;18.57;13.90;;;;;;;18.88;80.81;97840.97;1750689;81;20999;-82
2021/09/28 09:54:17;;;;;;;18.02;13.60;;;;;;;19.00;81.10;97836.98;1744521;81;21431;-81
2021/09/28 09:56:48;;;;;;;14.90;12.60;;;;;;;19.06;80.42;97842.44;1757428;80;20987;-81
2021/09/28 09:59:17;;;;;;;16.25;11.97;;;;;;;19.13;79.67;97842.89;1757089;81;21363;-82
2021/09/28 10:01:45;;;;;;;17.90;12.20;;;;;;;19.16;79.96;97845.84;1750849;81;20995;-82
2021/09/28 10:04:18;;;;;;;14.93;13.00;;;;;;;19.22;79.37;97846.30;1752911;82;20961;-81
2021/09/28 10:06:45;;;;;;;16.30;13.48;;;;;;;19.30;80.33;97848.46;1746573;82;21018;-82
2021/09/28 10:09:26;;;;;;;15.20;12.13;;;;;;;19.38;80.41;97847.47;1764409;80;21393;-81
2021/09/28 10:12:02;;;;;;;17.82;12.65;;;;;;;19.49;79.47;97848.08;1745773;81;20991;-82
2021/09/28 10:14:36;;;;;;;15.20;12.55;;;;;;;19.42;75.95;97844.58;1753185;80;20958;-81
2021/09/28 10:17:30;;;;;;;14.33;12.73;;;;;;;19.43;78.27;97848.98;1746838;82;20994;-81
2021/09/28 10:20:04;;;;;;;16.42;13.48;;;;;;;19.41;77.90;97850.90;1753235;80;21005;-82
2021/09/28 10:22:53;;;;;;;17.95;12.93;;;;;;;19.41;78.08;97848.20;1752780;80;21070;-81
2021/09/28 10:25:34;;;;;;;15.28;12.18;;;;;;;19.37;77.74;97851.13;1745625;82;21049;-81
2021/09/28 10:28:09;;;;;;;19.25;13.72;;;;;;;19.38;78.36;97847.47;1753336;81;20998;-81
2021/09/28 10:30:43;;;;;;;14.15;12.63;;;;;;;19.44;78.46;97852.92;1760947;81;20988;-82
2021/09/28 10:33:29;;;;;;;13.40;12.00;;;;;;;19.41;78.33;97851.77;1744083;82;21012;-81
2021/09/28 10:36:13;;;;;;;14.73;12.05;;;;;;;19.39;78.38;97852.37;1783219;80;20950;-79
2021/09/28 10:39:01;;;;;;;15.40;12.00;;;;;;;19.44;78.34;97850.70;1764341;81;21077;-81
2021/09/28 10:41:48;;;;;;;17.00;12.43;;;;;;;19.46;78.16;97852.78;1764301;81;20955;-81
2021/09/28 10:44:40;;;;;;;15.03;12.25;;;;;;;19.42;77.63;97854.83;1774682;81;21004;-81
2021/09/28 10:47:08;;;;;;;19.32;14.03;;;;;;;19.40;77.48;97854.09;1774658;81;20974;-81
2021/09/28 10:49:37;;;;;;;17.37;14.40;;;;;;;19.35;77.81;97850.85;1774520;81;21066;-79
2021/09/28 10:52:27;;;;;;;19.85;14.38;;;;;;;19.36;78.34;97856.09;1763545;81;21006;-81
2021/09/28 10:55:16;;;;;;;21.95;14.70;;;;;;;19.42;78.68;97855.33;1774516;81;21467;-81
2021/09/28 10:58:18;;;;;;;18.12;15.53;;;;;;;19.46;79.10;97857.69;1768795;79;21123;-81
2021/09/28 11:00:53;;;;;;;17.10;13.88;;;;;;;19.36;80.13;97855.25;1769178;81;20999;-81
2021/09/28 11:03:44;;;;;;;15.55;13.95;;;;;;;19.29;79.77;97850.78;1745980;81;21002;-81
2021/09/28 11:06:12;;;;;;;19.02;15.13;;;;;;;19.31;80.13;97856.05;1750275;82;21609;-80
2021/09/28 11:08:41;;;;;;;24.30;18.30;;;;;;;19.31;80.23;97856.05;1750225;82;21015;-81
2021/09/28 11:11:11;;;;;;;24.05;20.50;;;;;;;19.30;80.01;97857.02;1737585;81;20963;-81
2021/09/28 11:13:41;;;;;;;24.52;20.23;;;;;;;19.23;80.37;97864.13;1766546;81;21022;-81
2021/09/28 11:16:11;;;;;;;25.48;21.37;;;;;;;19.15;79.91;97860.25;1737157;81;21079;-81
2021/09/28 11:18:59;;;;;;;25.97;21.50;;;;;;;19.10;80.74;97856.05;1750438;82;20996;-81
2021/09/28 11:21:25;;;;;;;29.00;20.05;;;;;;;19.04;80.55;97849.74;1772865;80;21008;-81
2021/09/28 11:23:55;;;;;;;24.07;19.73;;;;;;;19.07;80.41;97852.70;1736428;80;20974;-81
2021/09/28 11:26:38;;;;;;;24.52;19.75;;;;;;;19.10;80.45;97852.52;1750534;82;21009;-81
2021/09/28 11:29:05;;;;;;;21.87;18.23;;;;;;;19.09;80.77;97857.02;1750515;81;21011;-80